createdAt,value
2017-06-10T00:00:18.195Z,12.83
2017-06-10T00:01:14.855Z,12.83
2017-06-10T00:02:11.171Z,12.83
2017-06-10T00:03:08.003Z,12.83
2017-06-10T00:04:04.287Z,12.83
2017-06-10T00:05:00.800Z,12.83
2017-06-10T00:05:57.095Z,12.83
2017-06-10T00:06:53.364Z,12.83
2017-06-10T00:07:49.899Z,12.83
2017-06-10T00:08:46.278Z,12.83
2017-06-10T00:09:42.631Z,12.83
2017-06-10T00:10:38.900Z,12.83
2017-06-10T00:11:35.220Z,12.83
2017-06-10T00:12:32.517Z,12.82
2017-06-10T00:13:30.841Z,12.82
2017-06-10T00:14:28.072Z,12.82
2017-06-10T00:15:24.511Z,12.83
2017-06-10T00:16:22.648Z,12.82
2017-06-10T00:17:21.767Z,12.82
2017-06-10T00:18:18.344Z,12.82
2017-06-10T00:19:15.480Z,12.82
2017-06-10T00:20:12.397Z,12.82
2017-06-10T00:21:08.751Z,12.82
2017-06-10T00:22:06.337Z,12.82
2017-06-10T00:23:03.508Z,12.82
2017-06-10T00:23:59.919Z,12.82
2017-06-10T00:24:56.583Z,12.82
2017-06-10T00:25:53.336Z,12.82
2017-06-10T00:26:50.136Z,12.82
2017-06-10T00:27:46.996Z,12.80
2017-06-10T00:28:43.590Z,12.82
2017-06-10T00:29:43.928Z,12.82
2017-06-10T00:30:43.040Z,12.82
2017-06-10T00:31:40.707Z,12.82
2017-06-10T00:32:39.332Z,12.82
2017-06-10T00:33:36.121Z,12.80
2017-06-10T00:34:33.119Z,12.80
2017-06-10T00:35:30.044Z,12.82
2017-06-10T00:36:28.308Z,12.82
2017-06-10T00:37:26.073Z,12.80
2017-06-10T00:38:24.073Z,12.80
2017-06-10T00:39:25.846Z,12.82
2017-06-10T00:40:24.506Z,12.82
2017-06-10T00:41:22.678Z,12.80
2017-06-10T00:42:20.343Z,12.80
2017-06-10T00:43:17.372Z,12.82
2017-06-10T00:44:16.245Z,12.80
2017-06-10T00:45:14.345Z,12.80
2017-06-10T00:46:14.040Z,12.80
2017-06-10T00:47:15.609Z,12.82
2017-06-10T00:48:16.805Z,12.80
2017-06-10T00:49:14.948Z,12.80
2017-06-10T00:50:19.102Z,12.80
2017-06-10T00:51:17.829Z,12.80
2017-06-10T00:52:21.367Z,12.80
2017-06-10T00:53:20.031Z,12.80
2017-06-10T00:55:25.908Z,12.80
2017-06-10T00:56:26.290Z,12.80
2017-06-10T00:57:30.913Z,12.80
2017-06-10T00:58:30.974Z,12.80
2017-06-10T00:59:34.019Z,12.80
2017-06-10T01:00:33.625Z,12.80
2017-06-10T01:01:31.296Z,12.79
2017-06-10T01:07:13.493Z,12.80
2017-06-10T01:08:15.140Z,12.79
2017-06-10T01:09:16.621Z,12.79
2017-06-10T01:11:26.209Z,12.79
2017-06-10T01:15:57.893Z,12.79
2017-06-10T01:16:58.677Z,12.79
2017-06-10T01:18:00.904Z,12.79
2017-06-10T01:19:02.638Z,12.79
2017-06-10T01:20:02.891Z,12.79
2017-06-10T01:23:50.840Z,12.79
2017-06-10T01:26:05.361Z,12.79
2017-06-10T01:27:08.065Z,12.79
2017-06-10T01:28:11.493Z,12.79
2017-06-10T01:29:15.474Z,12.79
2017-06-10T01:33:12.138Z,12.77
2017-06-10T01:36:04.793Z,12.77
2017-06-10T01:37:09.658Z,12.77
2017-06-10T01:42:43.096Z,12.77
2017-06-10T01:51:06.821Z,12.77
2017-06-10T05:31:04.868Z,13.94
2017-06-10T05:34:32.961Z,14.03
2017-06-10T05:35:36.500Z,14.02
2017-06-10T05:36:37.965Z,13.96
2017-06-10T05:37:38.596Z,13.96
2017-06-10T05:38:43.445Z,13.94
2017-06-10T05:40:55.153Z,14.06
2017-06-10T05:43:02.648Z,14.08
2017-06-10T05:44:12.921Z,14.06
2017-06-10T05:45:27.044Z,14.06
2017-06-10T05:47:40.561Z,14.08
2017-06-10T06:03:59.681Z,13.93
2017-06-10T06:05:04.621Z,13.93
2017-06-10T06:06:11.333Z,13.93
2017-06-10T06:07:14.209Z,13.93
2017-06-10T06:08:11.956Z,13.93
2017-06-10T06:09:10.163Z,13.91
2017-06-10T06:10:06.764Z,13.91
2017-06-10T06:11:03.537Z,13.91
2017-06-10T06:12:00.159Z,13.91
2017-06-10T06:12:56.668Z,14.08
2017-06-10T06:13:53.823Z,13.91
2017-06-10T06:14:50.202Z,13.91
2017-06-10T06:15:47.472Z,13.91
2017-06-10T06:16:43.728Z,13.91
2017-06-10T06:17:42.847Z,13.91
2017-06-10T06:18:39.136Z,13.91
2017-06-10T06:19:38.704Z,13.91
2017-06-10T06:20:34.974Z,13.91
2017-06-10T06:21:31.227Z,13.91
2017-06-10T06:22:27.503Z,13.91
2017-06-10T06:23:23.779Z,13.93
2017-06-10T06:24:20.047Z,13.91
2017-06-10T06:25:16.344Z,13.91
2017-06-10T06:26:12.603Z,13.91
2017-06-10T06:27:08.867Z,13.91
2017-06-10T06:28:05.135Z,13.91
2017-06-10T06:29:01.423Z,13.91
2017-06-10T06:29:57.674Z,13.91
2017-06-10T06:30:53.932Z,13.91
2017-06-10T06:31:50.195Z,14.09
2017-06-10T06:32:46.461Z,13.91
2017-06-10T06:33:42.791Z,13.91
2017-06-10T06:34:39.315Z,14.16
2017-06-10T06:35:35.664Z,13.91
2017-06-10T06:36:32.011Z,13.90
2017-06-10T06:37:28.255Z,13.90
2017-06-10T06:38:24.494Z,14.15
2017-06-10T06:39:20.738Z,13.91
2017-06-10T06:40:17.005Z,13.90
2017-06-10T06:41:13.251Z,13.90
2017-06-10T06:42:09.494Z,13.90
2017-06-10T06:43:05.732Z,13.89
2017-06-10T06:44:01.987Z,13.89
2017-06-10T06:44:58.244Z,13.89
2017-06-10T06:45:54.527Z,13.90
2017-06-10T06:46:50.769Z,13.90
2017-06-10T06:47:47.072Z,14.06
2017-06-10T06:48:43.606Z,13.90
2017-06-10T06:49:39.854Z,13.91
2017-06-10T06:50:36.099Z,13.91
2017-06-10T06:51:32.363Z,13.91
2017-06-10T06:52:28.617Z,13.91
2017-06-10T06:53:24.864Z,13.91
2017-06-10T06:54:21.098Z,13.90
2017-06-10T06:55:17.338Z,13.91
2017-06-10T06:56:13.614Z,13.91
2017-06-10T06:57:09.875Z,13.91
2017-06-10T06:58:06.130Z,14.00
2017-06-10T06:59:02.379Z,13.90
2017-06-10T06:59:58.635Z,13.91
2017-06-10T07:00:54.886Z,13.93
2017-06-10T07:01:51.167Z,13.91
2017-06-10T07:02:47.411Z,13.93
2017-06-10T07:03:43.659Z,13.91
2017-06-10T07:04:39.907Z,13.91
2017-06-10T07:05:36.159Z,13.99
2017-06-10T07:06:32.408Z,13.94
2017-06-10T07:07:28.683Z,14.00
2017-06-10T07:08:25.019Z,13.93
2017-06-10T07:09:21.266Z,13.94
2017-06-10T07:10:17.510Z,13.94
2017-06-10T07:11:13.755Z,13.94
2017-06-10T07:12:10.011Z,13.94
2017-06-10T07:13:06.267Z,14.00
2017-06-10T07:14:02.507Z,14.02
2017-06-10T07:14:58.790Z,13.94
2017-06-10T07:15:55.055Z,13.94
2017-06-10T07:16:51.311Z,13.94
2017-06-10T07:17:47.566Z,14.00
2017-06-10T07:18:43.823Z,13.94
2017-06-10T07:19:40.066Z,13.94
2017-06-10T07:20:36.342Z,13.94
2017-06-10T07:21:32.611Z,13.94
2017-06-10T07:22:28.855Z,13.94
2017-06-10T07:23:25.142Z,13.94
2017-06-10T07:24:21.443Z,13.94
2017-06-10T07:25:17.682Z,13.94
2017-06-10T07:26:13.930Z,13.94
2017-06-10T07:27:10.171Z,14.02
2017-06-10T07:28:06.427Z,13.94
2017-06-10T07:29:02.706Z,13.94
2017-06-10T07:29:58.956Z,14.02
2017-06-10T07:30:55.210Z,13.96
2017-06-10T07:31:51.446Z,13.94
2017-06-10T07:32:47.678Z,13.94
2017-06-10T07:33:43.934Z,13.94
2017-06-10T07:34:40.199Z,14.02
2017-06-10T07:35:36.442Z,14.02
2017-06-10T07:36:32.695Z,13.96
2017-06-10T07:37:28.935Z,14.02
2017-06-10T07:38:25.195Z,13.94
2017-06-10T07:39:21.439Z,13.94
2017-06-10T07:40:17.714Z,14.02
2017-06-10T07:41:13.958Z,13.94
2017-06-10T07:42:10.204Z,13.96
2017-06-10T07:43:06.443Z,13.94
2017-06-10T07:44:02.687Z,14.02
2017-06-10T07:44:58.930Z,13.94
2017-06-10T07:45:55.191Z,13.94
2017-06-10T07:46:51.431Z,13.94
2017-06-10T07:47:47.679Z,13.94
2017-06-10T07:48:43.992Z,13.94
2017-06-10T07:49:40.242Z,13.94
2017-06-10T07:50:36.534Z,13.94
2017-06-10T07:51:32.779Z,13.94
2017-06-10T07:52:29.031Z,13.94
2017-06-10T07:53:25.347Z,13.94
2017-06-10T07:54:21.583Z,13.94
2017-06-10T07:55:17.822Z,13.94
2017-06-10T07:56:14.091Z,13.94
2017-06-10T07:57:10.338Z,13.94
2017-06-10T07:58:06.583Z,13.94
2017-06-10T07:59:02.819Z,14.03
2017-06-10T07:59:59.063Z,13.94
2017-06-10T08:00:55.455Z,13.94
2017-06-10T08:01:51.860Z,14.03
2017-06-10T08:02:48.123Z,13.94
2017-06-10T08:03:44.372Z,13.94
2017-06-10T08:04:40.660Z,13.94
2017-06-10T08:05:36.935Z,13.94
2017-06-10T08:06:33.195Z,13.94
2017-06-10T08:07:29.474Z,13.94
2017-06-10T08:08:25.714Z,14.03
2017-06-10T08:09:21.977Z,13.94
2017-06-10T08:10:18.250Z,13.94
2017-06-10T08:11:14.495Z,13.90
2017-06-10T08:12:10.743Z,13.91
2017-06-10T08:13:07.004Z,13.81
2017-06-10T08:14:03.263Z,13.81
2017-06-10T08:14:59.500Z,13.91
2017-06-10T08:15:55.750Z,13.93
2017-06-10T08:16:52.011Z,13.91
2017-06-10T08:17:48.295Z,13.81
2017-06-10T08:18:44.542Z,13.93
2017-06-10T08:19:40.816Z,13.84
2017-06-10T08:20:37.083Z,13.93
2017-06-10T08:21:33.338Z,13.83
2017-06-10T08:22:29.583Z,13.83
2017-06-10T08:23:25.837Z,13.94
2017-06-10T08:24:22.135Z,13.84
2017-06-10T08:25:18.376Z,13.97
2017-06-10T08:26:14.631Z,13.86
2017-06-10T08:27:10.886Z,13.86
2017-06-10T08:28:07.211Z,13.94
2017-06-10T08:29:03.479Z,13.87
2017-06-10T08:29:59.727Z,13.87
2017-06-10T08:30:55.970Z,13.87
2017-06-10T08:31:52.212Z,14.03
2017-06-10T08:32:48.466Z,14.05
2017-06-10T08:33:44.719Z,13.89
2017-06-10T08:34:40.994Z,14.13
2017-06-10T08:35:37.232Z,14.03
2017-06-10T08:36:33.495Z,13.89
2017-06-10T08:37:29.750Z,13.89
2017-06-10T08:38:26.000Z,13.84
2017-06-10T08:39:22.238Z,13.83
2017-06-10T08:40:18.492Z,13.78
2017-06-10T08:41:14.745Z,13.77
2017-06-10T08:42:10.986Z,13.74
2017-06-10T08:43:07.227Z,13.72
2017-06-10T08:44:03.474Z,13.70
2017-06-10T08:44:59.734Z,13.67
2017-06-10T08:45:56.011Z,13.64
2017-06-10T08:46:52.263Z,13.61
2017-06-10T08:47:48.516Z,13.59
2017-06-10T08:48:44.766Z,13.58
2017-06-10T08:49:41.007Z,13.56
2017-06-10T08:50:37.255Z,13.55
2017-06-10T08:51:33.530Z,13.52
2017-06-10T08:52:29.767Z,13.50
2017-06-10T08:53:26.007Z,13.53
2017-06-10T08:54:22.254Z,13.52
2017-06-10T08:55:18.494Z,13.46
2017-06-10T08:56:14.739Z,13.46
2017-06-10T08:57:11.003Z,13.43
2017-06-10T08:58:07.268Z,13.42
2017-06-10T08:59:03.530Z,13.42
2017-06-10T08:59:59.787Z,13.45
2017-06-10T09:00:56.059Z,13.40
2017-06-10T09:01:52.299Z,13.42
2017-06-10T09:02:48.568Z,13.40
2017-06-10T09:03:44.819Z,13.40
2017-06-10T09:04:41.058Z,13.40
2017-06-10T09:05:37.303Z,13.42
2017-06-10T09:06:33.547Z,13.40
2017-06-10T09:07:29.807Z,13.40
2017-06-10T09:08:26.063Z,13.42
2017-06-10T09:09:22.307Z,13.42
2017-06-10T09:10:18.559Z,13.40
2017-06-10T09:11:14.795Z,13.39
2017-06-10T09:12:11.030Z,13.40
2017-06-10T09:13:07.310Z,13.40
2017-06-10T09:14:03.555Z,13.42
2017-06-10T09:14:59.810Z,13.45
2017-06-10T09:15:56.050Z,13.46
2017-06-10T09:16:52.303Z,13.46
2017-06-10T09:17:48.567Z,13.46
2017-06-10T09:18:44.834Z,13.45
2017-06-10T09:19:41.083Z,13.42
2017-06-10T09:20:37.322Z,13.45
2017-06-10T09:21:33.568Z,13.45
2017-06-10T09:22:29.811Z,13.45
2017-06-10T09:23:26.059Z,13.48
2017-06-10T09:24:22.335Z,13.48
2017-06-10T09:25:18.575Z,13.46
2017-06-10T09:26:14.834Z,13.46
2017-06-10T09:27:11.071Z,13.49
2017-06-10T09:28:07.315Z,13.46
2017-06-10T09:29:03.580Z,14.41
2017-06-10T09:29:59.870Z,13.43
2017-06-10T09:30:56.104Z,13.42
2017-06-10T09:31:52.343Z,13.42
2017-06-10T09:32:48.587Z,13.46
2017-06-10T09:33:44.826Z,13.43
2017-06-10T09:34:41.108Z,13.42
2017-06-10T09:35:37.347Z,13.42
2017-06-10T09:36:33.587Z,13.43
2017-06-10T09:37:29.822Z,13.46
2017-06-10T09:38:26.079Z,13.50
2017-06-10T09:39:22.331Z,13.48
2017-06-10T09:40:18.586Z,13.50
2017-06-10T09:41:14.830Z,13.48
2017-06-10T09:42:11.071Z,13.48
2017-06-10T09:43:07.315Z,13.48
2017-06-10T09:44:03.577Z,13.50
2017-06-10T09:45:00.716Z,13.48
2017-06-10T09:45:57.119Z,13.55
2017-06-10T09:46:53.364Z,13.48
2017-06-10T09:47:49.606Z,13.48
2017-06-10T09:48:45.851Z,13.50
2017-06-10T09:49:42.278Z,13.52
2017-06-10T09:50:38.515Z,13.50
2017-06-10T09:51:35.735Z,13.50
2017-06-10T09:52:32.001Z,13.48
2017-06-10T09:53:28.279Z,13.49
2017-06-10T09:54:24.535Z,13.46
2017-06-10T09:55:20.826Z,13.46
2017-06-10T09:56:17.075Z,13.43
2017-06-10T09:57:13.343Z,13.42
2017-06-10T09:58:09.591Z,13.42
2017-06-10T09:59:05.835Z,13.42
2017-06-10T10:00:02.089Z,13.40
2017-06-10T10:00:58.367Z,13.42
2017-06-10T10:01:54.630Z,13.45
2017-06-10T10:02:50.886Z,13.49
2017-06-10T10:03:47.127Z,13.53
2017-06-10T10:04:43.381Z,13.61
2017-06-10T10:05:39.631Z,13.61
2017-06-10T10:06:35.883Z,13.59
2017-06-10T10:07:32.171Z,13.56
2017-06-10T10:08:28.431Z,13.58
2017-06-10T10:09:24.702Z,13.52
2017-06-10T10:10:20.964Z,13.52
2017-06-10T10:11:17.222Z,13.68
2017-06-10T10:12:13.493Z,13.55
2017-06-10T10:13:09.833Z,13.55
2017-06-10T10:14:06.107Z,13.53
2017-06-10T10:15:02.371Z,13.50
2017-06-10T10:15:58.647Z,13.50
2017-06-10T10:16:54.914Z,13.70
2017-06-10T10:17:51.202Z,13.77
2017-06-10T10:18:47.885Z,13.59
2017-06-10T10:19:44.157Z,13.61
2017-06-10T10:20:40.414Z,13.59
2017-06-10T10:21:36.663Z,13.62
2017-06-10T10:22:32.921Z,13.64
2017-06-10T10:23:29.175Z,13.62
2017-06-10T10:24:25.443Z,13.64
2017-06-10T10:25:21.695Z,13.64
2017-06-10T10:26:17.943Z,13.64
2017-06-10T10:27:14.191Z,13.65
2017-06-10T10:28:11.815Z,13.64
2017-06-10T10:29:08.135Z,13.62
2017-06-10T10:30:04.398Z,13.58
2017-06-10T10:31:00.775Z,13.56
2017-06-10T10:31:57.014Z,13.58
2017-06-10T10:32:53.259Z,13.61
2017-06-10T10:33:49.519Z,13.67
2017-06-10T10:34:45.805Z,13.65
2017-06-10T10:35:42.048Z,13.61
2017-06-10T10:36:38.310Z,13.61
2017-06-10T10:37:34.587Z,13.53
2017-06-10T10:38:30.839Z,13.55
2017-06-10T10:39:27.131Z,13.55
2017-06-10T10:40:23.421Z,13.53
2017-06-10T10:41:19.670Z,13.49
2017-06-10T10:42:15.919Z,13.46
2017-06-10T10:43:12.168Z,13.43
2017-06-10T10:44:08.420Z,13.42
2017-06-10T10:45:04.683Z,13.40
2017-06-10T10:46:00.963Z,13.36
2017-06-10T10:46:57.218Z,13.39
2017-06-10T10:47:53.467Z,13.43
2017-06-10T10:48:49.727Z,13.48
2017-06-10T10:49:45.974Z,13.46
2017-06-10T10:50:42.246Z,13.43
2017-06-10T10:51:38.529Z,13.39
2017-06-10T10:52:34.790Z,13.37
2017-06-10T10:53:31.038Z,13.34
2017-06-10T10:54:27.299Z,13.37
2017-06-10T10:55:23.550Z,13.42
2017-06-10T10:56:19.844Z,13.46
2017-06-10T10:57:16.099Z,13.50
2017-06-10T10:58:12.355Z,13.77
2017-06-10T10:59:08.618Z,13.56
2017-06-10T11:00:04.895Z,13.59
2017-06-10T11:01:01.160Z,13.61
2017-06-10T11:01:57.431Z,13.62
2017-06-10T11:02:53.683Z,14.30
2017-06-10T11:03:49.927Z,13.65
2017-06-10T11:04:46.166Z,13.67
2017-06-10T11:05:42.407Z,13.65
2017-06-10T11:06:38.662Z,13.68
2017-06-10T11:07:34.985Z,13.67
2017-06-10T11:08:31.263Z,14.05
2017-06-10T11:09:27.539Z,13.70
2017-06-10T11:10:23.783Z,13.70
2017-06-10T11:11:20.022Z,13.70
2017-06-10T11:12:16.284Z,13.71
2017-06-10T11:13:12.587Z,13.71
2017-06-10T11:14:08.849Z,13.74
2017-06-10T11:15:05.126Z,13.74
2017-06-10T11:16:01.438Z,13.74
2017-06-10T11:16:57.739Z,13.74
2017-06-10T11:17:54.015Z,13.74
2017-06-10T11:18:50.320Z,13.75
2017-06-10T11:19:46.595Z,13.72
2017-06-10T11:20:42.862Z,13.71
2017-06-10T11:21:39.104Z,13.68
2017-06-10T11:22:35.350Z,13.68
2017-06-10T11:23:31.651Z,13.67
2017-06-10T11:24:27.895Z,13.64
2017-06-10T11:25:24.131Z,13.62
2017-06-10T11:26:20.382Z,13.61
2017-06-10T11:27:16.623Z,13.59
2017-06-10T11:28:12.866Z,13.58
2017-06-10T11:29:09.142Z,13.58
2017-06-10T11:30:05.375Z,13.56
2017-06-10T11:31:01.642Z,13.61
2017-06-10T11:31:57.943Z,13.59
2017-06-10T11:32:54.183Z,13.58
2017-06-10T11:33:50.426Z,13.56
2017-06-10T11:34:46.694Z,13.55
2017-06-10T11:35:42.946Z,13.55
2017-06-10T11:36:39.183Z,13.55
2017-06-10T11:37:35.423Z,13.53
2017-06-10T11:38:31.718Z,13.55
2017-06-10T11:39:27.969Z,13.55
2017-06-10T11:40:24.244Z,13.56
2017-06-10T11:41:20.484Z,13.56
2017-06-10T11:42:16.739Z,13.55
2017-06-10T11:43:13.042Z,13.55
2017-06-10T11:44:09.328Z,13.55
2017-06-10T11:45:05.607Z,13.55
2017-06-10T11:46:01.860Z,13.55
2017-06-10T11:46:58.099Z,13.55
2017-06-10T11:47:54.352Z,13.55
2017-06-10T11:48:50.590Z,13.56
2017-06-10T11:49:46.831Z,13.58
2017-06-10T11:50:43.103Z,13.59
2017-06-10T11:51:39.347Z,13.58
2017-06-10T11:52:35.594Z,13.59
2017-06-10T11:53:31.847Z,13.62
2017-06-10T11:54:28.098Z,13.80
2017-06-10T11:55:24.364Z,13.67
2017-06-10T11:56:20.639Z,13.68
2017-06-10T11:57:16.907Z,13.70
2017-06-10T11:58:13.179Z,13.70
2017-06-10T11:59:09.427Z,13.68
2017-06-10T12:00:05.667Z,13.70
2017-06-10T12:01:01.919Z,13.70
2017-06-10T12:01:58.182Z,13.71
2017-06-10T12:02:54.435Z,13.71
2017-06-10T12:03:50.670Z,13.72
2017-06-10T12:04:46.914Z,13.74
2017-06-10T12:05:43.188Z,13.74
2017-06-10T12:06:39.551Z,13.72
2017-06-10T12:07:35.828Z,13.72
2017-06-10T12:08:32.087Z,13.74
2017-06-10T12:09:28.335Z,13.71
2017-06-10T12:10:24.571Z,13.71
2017-06-10T12:11:20.819Z,13.67
2017-06-10T12:12:17.067Z,13.65
2017-06-10T12:13:13.355Z,13.65
2017-06-10T12:14:09.613Z,13.65
2017-06-10T12:15:05.863Z,13.64
2017-06-10T12:16:02.110Z,13.62
2017-06-10T12:16:58.369Z,13.59
2017-06-10T12:17:54.651Z,13.59
2017-06-10T12:18:50.907Z,13.58
2017-06-10T12:19:47.159Z,13.58
2017-06-10T12:20:43.403Z,13.56
2017-06-10T12:21:39.651Z,13.56
2017-06-10T12:22:35.902Z,13.55
2017-06-10T12:23:35.071Z,13.55
2017-06-10T12:24:31.330Z,13.56
2017-06-10T12:25:27.573Z,13.58
2017-06-10T12:26:23.822Z,13.59
2017-06-10T12:27:20.063Z,13.64
2017-06-10T12:28:16.323Z,13.62
2017-06-10T12:29:12.591Z,14.43
2017-06-10T12:30:08.843Z,13.67
2017-06-10T12:31:05.091Z,13.64
2017-06-10T12:32:01.336Z,13.64
2017-06-10T12:32:57.583Z,13.62
2017-06-10T12:33:53.835Z,13.64
2017-06-10T12:34:50.075Z,13.62
2017-06-10T12:35:46.315Z,13.64
2017-06-10T12:36:42.575Z,13.62
2017-06-10T12:37:38.811Z,13.62
2017-06-10T12:38:35.070Z,13.61
2017-06-10T12:39:31.316Z,13.61
2017-06-10T12:40:27.587Z,13.58
2017-06-10T12:41:23.846Z,13.58
2017-06-10T12:42:20.094Z,13.59
2017-06-10T12:43:16.342Z,13.59
2017-06-10T12:44:12.589Z,13.61
2017-06-10T12:45:08.915Z,13.59
2017-06-10T12:46:05.159Z,13.58
2017-06-10T12:47:01.394Z,13.55
2017-06-10T12:47:57.635Z,13.55
2017-06-10T12:48:53.875Z,13.53
2017-06-10T12:49:50.118Z,13.56
2017-06-10T12:50:46.396Z,13.56
2017-06-10T12:51:42.683Z,13.59
2017-06-10T12:52:38.959Z,13.59
2017-06-10T12:53:35.338Z,13.62
2017-06-10T12:54:31.588Z,13.61
2017-06-10T12:55:27.863Z,13.62
2017-06-10T12:56:24.136Z,13.62
2017-06-10T12:57:20.374Z,13.59
2017-06-10T12:58:16.623Z,13.61
2017-06-10T12:59:12.858Z,13.56
2017-06-10T13:00:09.083Z,13.55
2017-06-10T13:01:05.327Z,13.52
2017-06-10T13:02:01.598Z,14.53
2017-06-10T13:02:57.835Z,13.52
2017-06-10T13:03:54.092Z,13.50
2017-06-10T13:04:50.350Z,13.50
2017-06-10T13:05:46.607Z,13.49
2017-06-10T13:06:42.864Z,13.48
2017-06-10T13:07:39.129Z,13.48
2017-06-10T13:08:35.370Z,13.46
2017-06-10T13:09:31.618Z,13.48
2017-06-10T13:10:27.863Z,13.48
2017-06-10T13:11:24.119Z,13.45
2017-06-10T13:12:20.400Z,13.45
2017-06-10T13:13:16.655Z,13.48
2017-06-10T13:14:12.898Z,13.50
2017-06-10T13:15:09.149Z,13.55
2017-06-10T13:16:05.399Z,13.52
2017-06-10T13:17:01.653Z,13.55
2017-06-10T13:17:57.946Z,13.53
2017-06-10T13:18:54.211Z,13.53
2017-06-10T13:19:50.451Z,13.52
2017-06-10T13:20:46.703Z,14.22
2017-06-10T13:21:42.950Z,13.55
2017-06-10T13:22:39.210Z,13.55
2017-06-10T13:23:35.491Z,13.58
2017-06-10T13:24:31.741Z,13.59
2017-06-10T13:25:28.011Z,13.61
2017-06-10T13:26:24.248Z,13.62
2017-06-10T13:27:20.491Z,13.64
2017-06-10T13:28:16.730Z,13.65
2017-06-10T13:29:12.998Z,13.67
2017-06-10T13:30:09.251Z,14.30
2017-06-10T13:31:05.492Z,13.68
2017-06-10T13:32:01.735Z,13.68
2017-06-10T13:32:58.026Z,13.68
2017-06-10T13:33:54.270Z,13.68
2017-06-10T13:34:50.628Z,13.65
2017-06-10T13:35:46.874Z,13.62
2017-06-10T13:36:43.121Z,13.62
2017-06-10T13:37:39.366Z,13.58
2017-06-10T13:38:35.610Z,13.56
2017-06-10T13:39:31.875Z,13.55
2017-06-10T13:40:28.132Z,13.53
2017-06-10T13:41:24.392Z,13.52
2017-06-10T13:42:20.711Z,13.53
2017-06-10T13:43:16.955Z,13.52
2017-06-10T13:44:13.191Z,13.52
2017-06-10T13:45:09.461Z,13.53
2017-06-10T13:46:05.719Z,13.52
2017-06-10T13:47:01.967Z,13.53
2017-06-10T13:47:58.205Z,13.53
2017-06-10T13:48:54.452Z,13.55
2017-06-10T13:49:50.695Z,13.55
2017-06-10T13:50:46.977Z,13.56
2017-06-10T13:51:43.219Z,13.56
2017-06-10T13:52:39.474Z,13.56
2017-06-10T13:53:35.711Z,13.55
2017-06-10T13:54:31.959Z,13.55
2017-06-10T13:55:30.050Z,13.53
2017-06-10T13:56:26.310Z,13.50
2017-06-10T13:57:22.576Z,13.50
2017-06-10T13:58:18.811Z,13.50
2017-06-10T13:59:15.054Z,13.49
2017-06-10T14:00:11.327Z,13.55
2017-06-10T14:01:07.647Z,13.55
2017-06-10T14:02:03.920Z,13.56
2017-06-10T14:03:00.163Z,13.61
2017-06-10T14:03:56.407Z,13.61
2017-06-10T14:04:52.650Z,13.62
2017-06-10T14:05:48.900Z,13.62
2017-06-10T14:06:45.169Z,13.64
2017-06-10T14:07:41.415Z,13.62
2017-06-10T14:08:37.671Z,13.59
2017-06-10T14:09:33.922Z,13.56
2017-06-10T14:10:30.187Z,13.58
2017-06-10T14:11:26.430Z,13.56
2017-06-10T14:12:22.695Z,13.55
2017-06-10T14:13:18.934Z,13.55
2017-06-10T14:14:15.235Z,13.56
2017-06-10T14:15:11.494Z,13.55
2017-06-10T14:16:07.750Z,13.55
2017-06-10T14:17:04.000Z,13.55
2017-06-10T14:18:00.268Z,13.55
2017-06-10T14:18:56.504Z,13.55
2017-06-10T14:19:52.759Z,13.55
2017-06-10T14:20:49.060Z,13.55
2017-06-10T14:21:45.299Z,13.55
2017-06-10T14:22:41.544Z,13.59
2017-06-10T14:23:37.819Z,13.58
2017-06-10T14:24:34.080Z,13.58
2017-06-10T14:25:30.346Z,13.55
2017-06-10T14:26:26.591Z,13.56
2017-06-10T14:27:22.831Z,13.55
2017-06-10T14:28:19.123Z,13.55
2017-06-10T14:29:15.395Z,13.53
2017-06-10T14:30:11.634Z,13.55
2017-06-10T14:31:07.881Z,13.55
2017-06-10T14:32:04.132Z,13.53
2017-06-10T14:33:00.395Z,13.56
2017-06-10T14:33:56.678Z,13.56
2017-06-10T14:34:52.955Z,13.56
2017-06-10T14:35:49.208Z,13.56
2017-06-10T14:36:45.474Z,13.56
2017-06-10T14:37:41.738Z,13.56
2017-06-10T14:38:37.998Z,13.56
2017-06-10T14:39:34.287Z,13.56
2017-06-10T14:40:30.551Z,13.56
2017-06-10T14:41:26.828Z,13.56
2017-06-10T14:42:23.108Z,13.56
2017-06-10T14:43:19.353Z,13.59
2017-06-10T14:44:15.607Z,13.58
2017-06-10T14:45:11.895Z,13.58
2017-06-10T14:46:08.147Z,13.61
2017-06-10T14:47:04.395Z,13.62
2017-06-10T14:48:00.647Z,13.61
2017-06-10T14:48:56.898Z,13.61
2017-06-10T14:49:53.152Z,13.62
2017-06-10T14:50:49.458Z,13.64
2017-06-10T14:51:45.720Z,13.67
2017-06-10T14:52:41.954Z,13.62
2017-06-10T14:53:38.206Z,13.61
2017-06-10T14:54:34.450Z,13.61
2017-06-10T14:55:30.719Z,13.61
2017-06-10T14:56:26.995Z,13.61
2017-06-10T14:57:23.243Z,13.61
2017-06-10T14:58:19.495Z,13.59
2017-06-10T14:59:15.752Z,13.61
2017-06-10T15:00:11.987Z,13.61
2017-06-10T15:01:08.260Z,13.58
2017-06-10T15:02:04.503Z,13.59
2017-06-10T15:03:00.743Z,13.59
2017-06-10T15:03:57.023Z,13.59
2017-06-10T15:04:53.258Z,13.58
2017-06-10T15:05:49.518Z,13.58
2017-06-10T15:06:45.806Z,13.61
2017-06-10T15:07:42.099Z,13.62
2017-06-10T15:08:38.351Z,13.62
2017-06-10T15:09:34.613Z,13.62
2017-06-10T15:10:30.877Z,13.64
2017-06-10T15:11:27.112Z,13.61
2017-06-10T15:12:23.403Z,13.61
2017-06-10T15:13:19.657Z,13.61
2017-06-10T15:14:15.907Z,13.61
2017-06-10T15:15:12.259Z,13.61
2017-06-10T15:16:08.416Z,13.61
2017-06-10T15:17:04.674Z,13.61
2017-06-10T15:18:00.955Z,13.64
2017-06-10T15:18:57.198Z,13.64
2017-06-10T15:19:53.455Z,13.62
2017-06-10T15:20:49.707Z,13.62
2017-06-10T15:21:45.961Z,13.62
2017-06-10T15:22:42.216Z,13.64
2017-06-10T15:23:38.491Z,13.62
2017-06-10T15:24:34.770Z,13.61
2017-06-10T15:25:31.028Z,13.61
2017-06-10T15:26:27.287Z,14.13
2017-06-10T15:27:23.543Z,13.62
2017-06-10T15:28:19.835Z,13.61
2017-06-10T15:29:16.083Z,13.62
2017-06-10T15:30:12.327Z,13.62
2017-06-10T15:31:08.578Z,13.64
2017-06-10T15:32:04.868Z,13.64
2017-06-10T15:33:01.119Z,13.67
2017-06-10T15:33:57.396Z,13.65
2017-06-10T15:34:53.631Z,13.67
2017-06-10T15:35:49.871Z,13.90
2017-06-10T15:36:46.119Z,13.67
2017-06-10T15:37:42.375Z,13.67
2017-06-10T15:38:38.626Z,13.67
2017-06-10T15:39:34.894Z,13.70
2017-06-10T15:40:31.139Z,13.67
2017-06-10T15:41:27.403Z,13.67
2017-06-10T15:42:23.682Z,13.68
2017-06-10T15:43:20.355Z,13.67
2017-06-10T15:44:16.611Z,13.67
2017-06-10T15:45:12.913Z,13.65
2017-06-10T15:46:09.295Z,13.65
2017-06-10T15:47:05.750Z,13.67
2017-06-10T15:48:02.035Z,13.67
2017-06-10T15:48:58.295Z,13.67
2017-06-10T15:49:54.551Z,13.67
2017-06-10T15:50:50.814Z,13.67
2017-06-10T15:51:47.071Z,13.67
2017-06-10T15:52:43.333Z,13.65
2017-06-10T15:53:39.587Z,13.65
2017-06-10T15:54:35.834Z,13.67
2017-06-10T15:55:32.178Z,13.67
2017-06-10T15:56:28.422Z,13.68
2017-06-10T15:57:24.672Z,13.68
2017-06-10T15:58:20.931Z,13.65
2017-06-10T15:59:17.179Z,13.68
2017-06-10T16:00:13.426Z,13.65
2017-06-10T16:01:09.706Z,13.65
2017-06-10T16:02:05.943Z,13.65
2017-06-10T16:03:02.185Z,13.65
2017-06-10T16:03:58.427Z,13.67
2017-06-10T16:04:54.684Z,13.65
2017-06-10T16:05:50.948Z,13.65
2017-06-10T16:06:47.227Z,13.65
2017-06-10T16:07:43.475Z,13.67
2017-06-10T16:08:39.719Z,13.67
2017-06-10T16:09:35.982Z,13.67
2017-06-10T16:10:32.240Z,13.68
2017-06-10T16:11:28.543Z,13.71
2017-06-10T16:12:24.822Z,13.68
2017-06-10T16:13:21.063Z,13.70
2017-06-10T16:14:17.319Z,13.68
2017-06-10T16:15:13.593Z,13.68
2017-06-10T16:16:09.843Z,14.08
2017-06-10T16:17:06.099Z,13.70
2017-06-10T16:18:02.367Z,13.70
2017-06-10T16:18:58.626Z,13.68
2017-06-10T16:19:54.889Z,13.68
2017-06-10T16:20:51.131Z,13.68
2017-06-10T16:21:47.472Z,13.68
2017-06-10T16:22:43.751Z,13.70
2017-06-10T16:23:40.011Z,13.71
2017-06-10T16:24:36.262Z,13.71
2017-06-10T16:25:32.505Z,13.70
2017-06-10T16:26:28.764Z,13.70
2017-06-10T16:27:25.022Z,13.70
2017-06-10T16:28:21.298Z,13.70
2017-06-10T16:29:17.581Z,14.02
2017-06-10T16:30:13.846Z,13.70
2017-06-10T16:31:10.096Z,13.71
2017-06-10T16:32:06.347Z,13.72
2017-06-10T16:33:02.622Z,13.72
2017-06-10T16:33:58.921Z,13.71
2017-06-10T16:34:55.188Z,13.71
2017-06-10T16:35:51.435Z,13.71
2017-06-10T16:36:47.694Z,13.72
2017-06-10T16:37:43.944Z,13.72
2017-06-10T16:38:40.219Z,13.74
2017-06-10T16:39:36.478Z,13.72
2017-06-10T16:40:32.722Z,13.72
2017-06-10T16:41:28.970Z,13.72